7TVIL FIMP-FMEE
Flight info
| Callsign | 7TVIL |
|---|---|
| Flight time | 0h 54m |
| Altitude | 8000 |
| Route | SOBAT2A SOBAT SOBAT2R |
| Aircraft | C208/L-SDFGR/C |
Departure
| Time | 2026-04-22 17:39 |
|---|---|
| Airport | Sir Seewoosagur Ramgoolam International Airport (FIMP) |
Arrival
| Time | 2026-04-22 18:34 |
|---|---|
| Airport | Roland Garros Airport (FMEE) |
| Time | Latitude | Longitude | Altitude | Speed | Heading |
|---|---|---|---|---|---|
| 2026-04-22 17:28 | -20.42862 | 57.67372 | 172 ft | 0 kts | 7° |
| 2026-04-22 17:35 | -20.42861 | 57.67373 | 172 ft | 2 kts | 27° |
| 2026-04-22 17:35 | -20.42849 | 57.67425 | 171 ft | 14 kts | 40° |
| 2026-04-22 17:36 | -20.42747 | 57.67527 | 171 ft | 26 kts | 41° |
| 2026-04-22 17:36 | -20.42666 | 57.67608 | 171 ft | 19 kts | 84° |
| 2026-04-22 17:36 | -20.42669 | 57.67625 | 170 ft | 0 kts | 116° |
| 2026-04-22 17:37 | -20.42670 | 57.67626 | 170 ft | 2 kts | 116° |
| 2026-04-22 17:38 | -20.42738 | 57.67774 | 165 ft | 51 kts | 117° |
| 2026-04-22 17:38 | -20.42986 | 57.68278 | 192 ft | 97 kts | 115° |
| 2026-04-22 17:38 | -20.43346 | 57.68992 | 276 ft | 119 kts | 116° |
| 2026-04-22 17:38 | -20.43757 | 57.69795 | 424 ft | 126 kts | 116° |
| 2026-04-22 17:39 | -20.44178 | 57.70633 | 493 ft | 129 kts | 116° |
| 2026-04-22 17:39 | -20.44597 | 57.71425 | 725 ft | 114 kts | 118° |
| 2026-04-22 17:39 | -20.45649 | 57.72479 | 1439 ft | 101 kts | 155° |
| 2026-04-22 17:40 | -20.46469 | 57.72649 | 1130 ft | 144 kts | 171° |
| 2026-04-22 17:40 | -20.47552 | 57.72506 | 1062 ft | 153 kts | 197° |
| 2026-04-22 17:40 | -20.48416 | 57.71972 | 1513 ft | 134 kts | 206° |
| 2026-04-22 17:40 | -20.49200 | 57.71514 | 1835 ft | 126 kts | 206° |
| 2026-04-22 17:41 | -20.49902 | 57.70964 | 2052 ft | 134 kts | 218° |
| 2026-04-22 17:41 | -20.50516 | 57.70101 | 2067 ft | 153 kts | 240° |
| 2026-04-22 17:41 | -20.50900 | 57.69023 | 2215 ft | 157 kts | 247° |
| 2026-04-22 17:41 | -20.51307 | 57.67935 | 2372 ft | 159 kts | 246° |
| 2026-04-22 17:42 | -20.51729 | 57.66837 | 2519 ft | 161 kts | 246° |
| 2026-04-22 17:42 | -20.52151 | 57.65727 | 2672 ft | 163 kts | 245° |
| 2026-04-22 17:42 | -20.52567 | 57.64593 | 2816 ft | 165 kts | 249° |
| 2026-04-22 17:42 | -20.52747 | 57.63386 | 2962 ft | 166 kts | 274° |
| 2026-04-22 17:43 | -20.52453 | 57.62216 | 3110 ft | 163 kts | 296° |
| 2026-04-22 17:43 | -20.52025 | 57.61091 | 3262 ft | 164 kts | 296° |
| 2026-04-22 17:43 | -20.51612 | 57.59947 | 3410 ft | 166 kts | 295° |
| 2026-04-22 17:43 | -20.51204 | 57.58803 | 3556 ft | 168 kts | 295° |
| 2026-04-22 17:44 | -20.50788 | 57.57633 | 3705 ft | 169 kts | 295° |
| 2026-04-22 17:44 | -20.50371 | 57.56459 | 3850 ft | 169 kts | 294° |
| 2026-04-22 17:44 | -20.49954 | 57.55283 | 3992 ft | 170 kts | 294° |
| 2026-04-22 17:44 | -20.49535 | 57.54106 | 4138 ft | 170 kts | 294° |
| 2026-04-22 17:45 | -20.49115 | 57.52926 | 4284 ft | 170 kts | 294° |
| 2026-04-22 17:45 | -20.48693 | 57.51740 | 4433 ft | 171 kts | 294° |
| 2026-04-22 17:45 | -20.48269 | 57.50545 | 4579 ft | 173 kts | 295° |
| 2026-04-22 17:45 | -20.47837 | 57.49331 | 4737 ft | 175 kts | 295° |
| 2026-04-22 17:46 | -20.47413 | 57.48140 | 4880 ft | 173 kts | 294° |
| 2026-04-22 17:46 | -20.46984 | 57.46939 | 5023 ft | 173 kts | 294° |
| 2026-04-22 17:46 | -20.46603 | 57.45720 | 5160 ft | 174 kts | 282° |
| 2026-04-22 17:46 | -20.46689 | 57.44437 | 5297 ft | 175 kts | 255° |
| 2026-04-22 17:47 | -20.46982 | 57.43181 | 5438 ft | 174 kts | 256° |
| 2026-04-22 17:47 | -20.47252 | 57.41921 | 5579 ft | 174 kts | 257° |
| 2026-04-22 17:47 | -20.47521 | 57.40665 | 5730 ft | 174 kts | 257° |
| 2026-04-22 17:47 | -20.47791 | 57.39418 | 5865 ft | 171 kts | 257° |
| 2026-04-22 17:48 | -20.48058 | 57.38186 | 6014 ft | 170 kts | 256° |
| 2026-04-22 17:48 | -20.48327 | 57.36945 | 6165 ft | 173 kts | 256° |
| 2026-04-22 17:48 | -20.48599 | 57.35689 | 6305 ft | 174 kts | 256° |
| 2026-04-22 17:48 | -20.48868 | 57.34442 | 6455 ft | 171 kts | 257° |
| 2026-04-22 17:49 | -20.49134 | 57.33206 | 6596 ft | 171 kts | 257° |
| 2026-04-22 17:49 | -20.49402 | 57.31972 | 6730 ft | 170 kts | 256° |
| 2026-04-22 17:49 | -20.49667 | 57.30744 | 6864 ft | 169 kts | 257° |
| 2026-04-22 17:49 | -20.49929 | 57.29524 | 7004 ft | 168 kts | 257° |
| 2026-04-22 17:50 | -20.50190 | 57.28323 | 7141 ft | 169 kts | 256° |
| 2026-04-22 17:50 | -20.50452 | 57.27104 | 7282 ft | 168 kts | 257° |
| 2026-04-22 17:50 | -20.50714 | 57.25885 | 7424 ft | 168 kts | 257° |
| 2026-04-22 17:50 | -20.50978 | 57.24667 | 7563 ft | 169 kts | 257° |
| 2026-04-22 17:51 | -20.51240 | 57.23446 | 7706 ft | 169 kts | 257° |
| 2026-04-22 17:51 | -20.51504 | 57.22222 | 7851 ft | 169 kts | 256° |
| 2026-04-22 17:51 | -20.51767 | 57.20997 | 7980 ft | 171 kts | 257° |
| 2026-04-22 17:51 | -20.52039 | 57.19726 | 7982 ft | 180 kts | 257° |
| 2026-04-22 17:52 | -20.52320 | 57.18412 | 7992 ft | 183 kts | 257° |
| 2026-04-22 17:52 | -20.52608 | 57.17064 | 7997 ft | 189 kts | 257° |
| 2026-04-22 17:52 | -20.52906 | 57.15680 | 7999 ft | 193 kts | 257° |
| 2026-04-22 17:52 | -20.53208 | 57.14275 | 7996 ft | 195 kts | 257° |
| 2026-04-22 17:53 | -20.53508 | 57.12880 | 7993 ft | 196 kts | 257° |
| 2026-04-22 17:53 | -20.53813 | 57.11460 | 7997 ft | 197 kts | 256° |
| 2026-04-22 17:53 | -20.54118 | 57.10036 | 7993 ft | 197 kts | 257° |
| 2026-04-22 17:53 | -20.54422 | 57.08616 | 7997 ft | 197 kts | 256° |
| 2026-04-22 17:54 | -20.54728 | 57.07191 | 7994 ft | 197 kts | 256° |
| 2026-04-22 17:54 | -20.55032 | 57.05769 | 7992 ft | 197 kts | 256° |
| 2026-04-22 17:54 | -20.55336 | 57.04345 | 7994 ft | 196 kts | 256° |
| 2026-04-22 17:54 | -20.55641 | 57.02924 | 7996 ft | 197 kts | 257° |
| 2026-04-22 17:55 | -20.55945 | 57.01501 | 7993 ft | 197 kts | 256° |
| 2026-04-22 17:55 | -20.56249 | 57.00081 | 7992 ft | 196 kts | 257° |
| 2026-04-22 17:55 | -20.56554 | 56.98658 | 7991 ft | 197 kts | 256° |
| 2026-04-22 17:55 | -20.56857 | 56.97234 | 7990 ft | 197 kts | 256° |
| 2026-04-22 17:56 | -20.57163 | 56.95806 | 7989 ft | 197 kts | 257° |
| 2026-04-22 17:56 | -20.57467 | 56.94379 | 7987 ft | 197 kts | 257° |
| 2026-04-22 17:56 | -20.57772 | 56.92950 | 7988 ft | 198 kts | 256° |
| 2026-04-22 17:56 | -20.58077 | 56.91522 | 7987 ft | 197 kts | 257° |
| 2026-04-22 17:57 | -20.58381 | 56.90090 | 7989 ft | 198 kts | 257° |
| 2026-04-22 17:57 | -20.58687 | 56.88660 | 7988 ft | 198 kts | 256° |
| 2026-04-22 17:57 | -20.58987 | 56.87246 | 7989 ft | 198 kts | 256° |
| 2026-04-22 17:57 | -20.59293 | 56.85813 | 7991 ft | 198 kts | 256° |
| 2026-04-22 17:58 | -20.59598 | 56.84383 | 7988 ft | 198 kts | 256° |
| 2026-04-22 17:58 | -20.59903 | 56.82945 | 7988 ft | 198 kts | 257° |
| 2026-04-22 17:58 | -20.60207 | 56.81514 | 7983 ft | 198 kts | 257° |
| 2026-04-22 17:58 | -20.60512 | 56.80084 | 7983 ft | 198 kts | 256° |
| 2026-04-22 17:59 | -20.60816 | 56.78650 | 7983 ft | 198 kts | 256° |
| 2026-04-22 17:59 | -20.61120 | 56.77217 | 7987 ft | 198 kts | 257° |
| 2026-04-22 17:59 | -20.61424 | 56.75787 | 7983 ft | 198 kts | 257° |
| 2026-04-22 17:59 | -20.61728 | 56.74356 | 7983 ft | 198 kts | 257° |
| 2026-04-22 18:00 | -20.61930 | 56.73406 | 7987 ft | 197 kts | 257° |
| 2026-04-22 18:00 | -20.62326 | 56.71532 | 8029 ft | 196 kts | 257° |
| 2026-04-22 18:00 | -20.62628 | 56.70109 | 8031 ft | 197 kts | 257° |
| 2026-04-22 18:00 | -20.62931 | 56.68683 | 8033 ft | 197 kts | 257° |
| 2026-04-22 18:01 | -20.63233 | 56.67257 | 8032 ft | 197 kts | 256° |
| 2026-04-22 18:01 | -20.63536 | 56.65827 | 8031 ft | 198 kts | 257° |
| 2026-04-22 18:01 | -20.63837 | 56.64396 | 8029 ft | 198 kts | 257° |
| 2026-04-22 18:01 | -20.64140 | 56.62963 | 8029 ft | 198 kts | 257° |
| 2026-04-22 18:02 | -20.64444 | 56.61528 | 8027 ft | 198 kts | 257° |
| 2026-04-22 18:02 | -20.64746 | 56.60097 | 8029 ft | 198 kts | 257° |
| 2026-04-22 18:02 | -20.65050 | 56.58660 | 8030 ft | 198 kts | 257° |
| 2026-04-22 18:02 | -20.65354 | 56.57223 | 8032 ft | 198 kts | 257° |
| 2026-04-22 18:03 | -20.65657 | 56.55784 | 8034 ft | 199 kts | 257° |
| 2026-04-22 18:03 | -20.65961 | 56.54343 | 8032 ft | 199 kts | 257° |
| 2026-04-22 18:03 | -20.66264 | 56.52905 | 8034 ft | 199 kts | 257° |
| 2026-04-22 18:03 | -20.66565 | 56.51480 | 8036 ft | 199 kts | 256° |
| 2026-04-22 18:04 | -20.66869 | 56.50037 | 8032 ft | 198 kts | 257° |
| 2026-04-22 18:04 | -20.67172 | 56.48600 | 8035 ft | 198 kts | 256° |
| 2026-04-22 18:04 | -20.67474 | 56.47159 | 8035 ft | 198 kts | 257° |
| 2026-04-22 18:04 | -20.67776 | 56.45725 | 8031 ft | 198 kts | 257° |
| 2026-04-22 18:05 | -20.68078 | 56.44289 | 8032 ft | 198 kts | 256° |
| 2026-04-22 18:05 | -20.68381 | 56.42851 | 8034 ft | 198 kts | 256° |
| 2026-04-22 18:05 | -20.68682 | 56.41414 | 8039 ft | 198 kts | 257° |
| 2026-04-22 18:05 | -20.68982 | 56.39980 | 8034 ft | 198 kts | 256° |
| 2026-04-22 18:06 | -20.69285 | 56.38550 | 8036 ft | 197 kts | 256° |
| 2026-04-22 18:06 | -20.69584 | 56.37120 | 8038 ft | 197 kts | 256° |
| 2026-04-22 18:06 | -20.69883 | 56.35693 | 8034 ft | 197 kts | 256° |
| 2026-04-22 18:06 | -20.70183 | 56.34265 | 8034 ft | 197 kts | 256° |
| 2026-04-22 18:07 | -20.70381 | 56.33319 | 8034 ft | 197 kts | 256° |
| 2026-04-22 18:07 | -20.70776 | 56.31430 | 8034 ft | 197 kts | 256° |
| 2026-04-22 18:07 | -20.71075 | 56.30006 | 8035 ft | 197 kts | 257° |
| 2026-04-22 18:07 | -20.71372 | 56.28581 | 8034 ft | 197 kts | 256° |
| 2026-04-22 18:08 | -20.71672 | 56.27150 | 8033 ft | 197 kts | 256° |
| 2026-04-22 18:08 | -20.71806 | 56.25701 | 8035 ft | 197 kts | 273° |
| 2026-04-22 18:08 | -20.71745 | 56.24239 | 8039 ft | 197 kts | 272° |
| 2026-04-22 18:08 | -20.71718 | 56.22774 | 8037 ft | 198 kts | 271° |
| 2026-04-22 18:09 | -20.71689 | 56.21306 | 8037 ft | 198 kts | 272° |
| 2026-04-22 18:09 | -20.71653 | 56.19838 | 8042 ft | 198 kts | 272° |
| 2026-04-22 18:09 | -20.71618 | 56.18367 | 8039 ft | 198 kts | 272° |
| 2026-04-22 18:09 | -20.71583 | 56.16896 | 8035 ft | 198 kts | 272° |
| 2026-04-22 18:10 | -20.71548 | 56.15428 | 8035 ft | 198 kts | 272° |
| 2026-04-22 18:10 | -20.71514 | 56.13957 | 8037 ft | 198 kts | 272° |
| 2026-04-22 18:10 | -20.71478 | 56.12497 | 8032 ft | 199 kts | 272° |
| 2026-04-22 18:10 | -20.71443 | 56.11005 | 8032 ft | 198 kts | 272° |
| 2026-04-22 18:11 | -20.71408 | 56.09554 | 8037 ft | 198 kts | 271° |
| 2026-04-22 18:11 | -20.71372 | 56.08082 | 8035 ft | 198 kts | 272° |
| 2026-04-22 18:11 | -20.71337 | 56.06612 | 8037 ft | 198 kts | 272° |
| 2026-04-22 18:11 | -20.71301 | 56.05138 | 8038 ft | 198 kts | 271° |
| 2026-04-22 18:12 | -20.71265 | 56.03664 | 8034 ft | 198 kts | 272° |
| 2026-04-22 18:12 | -20.71229 | 56.02190 | 8038 ft | 198 kts | 272° |
| 2026-04-22 18:12 | -20.71205 | 56.01219 | 8036 ft | 198 kts | 272° |
| 2026-04-22 18:12 | -20.71155 | 55.99255 | 8036 ft | 198 kts | 271° |
| 2026-04-22 18:13 | -20.71120 | 55.97789 | 8032 ft | 198 kts | 272° |
| 2026-04-22 18:13 | -20.71083 | 55.96321 | 8034 ft | 197 kts | 272° |
| 2026-04-22 18:13 | -20.71047 | 55.94858 | 8031 ft | 197 kts | 272° |
| 2026-04-22 18:13 | -20.71010 | 55.93394 | 8032 ft | 197 kts | 272° |
| 2026-04-22 18:14 | -20.70974 | 55.91934 | 8031 ft | 197 kts | 271° |
| 2026-04-22 18:14 | -20.70936 | 55.90472 | 8034 ft | 197 kts | 272° |
| 2026-04-22 18:14 | -20.70900 | 55.89008 | 8030 ft | 197 kts | 272° |
| 2026-04-22 18:14 | -20.70863 | 55.87544 | 8029 ft | 197 kts | 271° |
| 2026-04-22 18:15 | -20.70825 | 55.86081 | 8032 ft | 197 kts | 272° |
| 2026-04-22 18:15 | -20.70788 | 55.84618 | 8028 ft | 197 kts | 272° |
| 2026-04-22 18:15 | -20.70750 | 55.83174 | 8025 ft | 197 kts | 271° |
| 2026-04-22 18:15 | -20.70714 | 55.81710 | 8026 ft | 197 kts | 271° |
| 2026-04-22 18:16 | -20.70676 | 55.80244 | 8027 ft | 197 kts | 272° |
| 2026-04-22 18:16 | -20.70637 | 55.78774 | 8026 ft | 197 kts | 272° |
| 2026-04-22 18:16 | -20.70598 | 55.77310 | 8027 ft | 198 kts | 272° |
| 2026-04-22 18:16 | -20.70561 | 55.75841 | 8029 ft | 198 kts | 271° |
| 2026-04-22 18:17 | -20.70523 | 55.74371 | 8030 ft | 198 kts | 272° |
| 2026-04-22 18:17 | -20.70485 | 55.72898 | 8028 ft | 199 kts | 272° |
| 2026-04-22 18:17 | -20.70446 | 55.71422 | 8032 ft | 199 kts | 272° |
| 2026-04-22 18:17 | -20.70406 | 55.69950 | 8031 ft | 199 kts | 272° |
| 2026-04-22 18:18 | -20.70368 | 55.68472 | 8033 ft | 199 kts | 271° |
| 2026-04-22 18:18 | -20.70328 | 55.66997 | 8032 ft | 199 kts | 271° |
| 2026-04-22 18:18 | -20.70290 | 55.65521 | 8032 ft | 199 kts | 272° |
| 2026-04-22 18:18 | -20.70250 | 55.64043 | 8031 ft | 199 kts | 272° |
| 2026-04-22 18:19 | -20.70198 | 55.62586 | 8030 ft | 199 kts | 272° |
| 2026-04-22 18:19 | -20.70138 | 55.61110 | 8032 ft | 199 kts | 272° |
| 2026-04-22 18:19 | -20.70083 | 55.59633 | 8031 ft | 199 kts | 272° |
| 2026-04-22 18:19 | -20.70027 | 55.58154 | 8031 ft | 199 kts | 272° |
| 2026-04-22 18:20 | -20.69973 | 55.56676 | 8028 ft | 199 kts | 272° |
| 2026-04-22 18:20 | -20.69918 | 55.55195 | 8033 ft | 200 kts | 272° |
| 2026-04-22 18:20 | -20.69862 | 55.53717 | 8032 ft | 200 kts | 272° |
| 2026-04-22 18:20 | -20.69806 | 55.52231 | 7988 ft | 202 kts | 272° |
| 2026-04-22 18:21 | -20.69750 | 55.50722 | 7917 ft | 204 kts | 272° |
| 2026-04-22 18:21 | -20.69692 | 55.49204 | 7847 ft | 205 kts | 272° |
| 2026-04-22 18:21 | -20.69634 | 55.47678 | 7774 ft | 206 kts | 272° |
| 2026-04-22 18:21 | -20.69577 | 55.46150 | 7701 ft | 206 kts | 272° |
| 2026-04-22 18:22 | -20.69519 | 55.44618 | 7630 ft | 206 kts | 272° |
| 2026-04-22 18:22 | -20.69461 | 55.43089 | 7559 ft | 206 kts | 272° |
| 2026-04-22 18:22 | -20.69402 | 55.41578 | 7489 ft | 206 kts | 272° |
| 2026-04-22 18:22 | -20.69344 | 55.40040 | 7417 ft | 207 kts | 272° |
| 2026-04-22 18:23 | -20.69284 | 55.38504 | 7342 ft | 207 kts | 272° |
| 2026-04-22 18:23 | -20.69225 | 55.36962 | 7272 ft | 207 kts | 272° |
| 2026-04-22 18:23 | -20.69167 | 55.35426 | 7199 ft | 207 kts | 272° |
| 2026-04-22 18:24 | -20.69066 | 55.32362 | 7050 ft | 206 kts | 266° |
| 2026-04-22 18:24 | -20.69421 | 55.30901 | 6967 ft | 203 kts | 242° |
| 2026-04-22 18:24 | -20.70931 | 55.29106 | 6840 ft | 193 kts | 206° |
| 2026-04-22 18:25 | -20.72152 | 55.28591 | 6765 ft | 186 kts | 186° |
| 2026-04-22 18:25 | -20.73423 | 55.28436 | 6696 ft | 183 kts | 179° |
| 2026-04-22 18:25 | -20.74694 | 55.28287 | 6625 ft | 184 kts | 181° |
| 2026-04-22 18:26 | -20.77218 | 55.28173 | 6477 ft | 177 kts | 160° |
| 2026-04-22 18:26 | -20.78305 | 55.28732 | 6436 ft | 170 kts | 140° |
| 2026-04-22 18:26 | -20.79107 | 55.29650 | 6322 ft | 169 kts | 122° |
| 2026-04-22 18:26 | -20.79767 | 55.30651 | 6173 ft | 164 kts | 123° |
| 2026-04-22 18:27 | -20.80383 | 55.31652 | 6018 ft | 159 kts | 111° |
| 2026-04-22 18:27 | -20.80398 | 55.32794 | 5851 ft | 158 kts | 71° |
| 2026-04-22 18:27 | -20.79655 | 55.33662 | 5690 ft | 166 kts | 33° |
| 2026-04-22 18:27 | -20.78839 | 55.34422 | 5501 ft | 156 kts | 76° |
| 2026-04-22 18:28 | -20.79123 | 55.35461 | 5503 ft | 151 kts | 131° |
| 2026-04-22 18:28 | -20.79990 | 55.36055 | 5610 ft | 149 kts | 155° |
| 2026-04-22 18:28 | -20.80986 | 55.36317 | 5706 ft | 142 kts | 148° |
| 2026-04-22 18:28 | -20.81790 | 55.36884 | 5800 ft | 135 kts | 133° |
| 2026-04-22 18:29 | -20.82371 | 55.37648 | 5899 ft | 131 kts | 117° |
| 2026-04-22 18:29 | -20.82831 | 55.38499 | 5851 ft | 132 kts | 116° |
| 2026-04-22 18:29 | -20.83243 | 55.39320 | 5647 ft | 118 kts | 115° |
| 2026-04-22 18:29 | -20.83611 | 55.40081 | 5338 ft | 113 kts | 112° |
| 2026-04-22 18:30 | -20.83953 | 55.40826 | 5032 ft | 110 kts | 113° |
| 2026-04-22 18:30 | -20.84618 | 55.42254 | 4347 ft | 107 kts | 112° |
| 2026-04-22 18:30 | -20.84947 | 55.42951 | 3985 ft | 106 kts | 113° |
| 2026-04-22 18:31 | -20.85271 | 55.43652 | 3619 ft | 104 kts | 114° |
| 2026-04-22 18:31 | -20.85593 | 55.44338 | 3254 ft | 102 kts | 114° |
| 2026-04-22 18:31 | -20.85906 | 55.45017 | 2885 ft | 101 kts | 115° |
| 2026-04-22 18:31 | -20.86221 | 55.45688 | 2518 ft | 101 kts | 114° |
| 2026-04-22 18:32 | -20.86582 | 55.46335 | 2193 ft | 100 kts | 125° |
| 2026-04-22 18:32 | -20.87101 | 55.46817 | 1900 ft | 99 kts | 139° |
| 2026-04-22 18:32 | -20.87596 | 55.47282 | 1683 ft | 91 kts | 130° |
| 2026-04-22 18:32 | -20.87910 | 55.47881 | 1347 ft | 95 kts | 113° |
| 2026-04-22 18:33 | -20.88116 | 55.48553 | 1001 ft | 95 kts | 110° |
| 2026-04-22 18:33 | -20.88288 | 55.49218 | 695 ft | 91 kts | 109° |
| 2026-04-22 18:33 | -20.88449 | 55.49877 | 399 ft | 93 kts | 105° |
| 2026-04-22 18:33 | -20.88595 | 55.50521 | 178 ft | 88 kts | 106° |
| 2026-04-22 18:34 | -20.88714 | 55.51098 | 78 ft | 75 kts | 105° |
| 2026-04-22 18:34 | -20.88823 | 55.51586 | 45 ft | 60 kts | 107° |
| 2026-04-22 18:34 | -20.88896 | 55.51904 | 43 ft | 15 kts | 109° |
| 2026-04-22 18:34 | -20.88893 | 55.51921 | 42 ft | 1 kts | 278° |
| 2026-04-22 18:35 | -20.88889 | 55.51881 | 43 ft | 13 kts | 275° |
| 2026-04-22 18:35 | -20.88866 | 55.51724 | 44 ft | 31 kts | 290° |
| 2026-04-22 18:35 | -20.88819 | 55.51437 | 45 ft | 47 kts | 273° |
| 2026-04-22 18:35 | -20.88795 | 55.51159 | 47 ft | 23 kts | 215° |
| 2026-04-22 18:36 | -20.88910 | 55.51160 | 47 ft | 14 kts | 217° |
| 2026-04-22 18:36 | -20.88954 | 55.51065 | 46 ft | 18 kts | 207° |
| 2026-04-22 18:36 | -20.88998 | 55.51041 | 46 ft | 0 kts | 206° |